To NAV CANADA Home Page Login to a new session Search on AWWS site Disclaimer Vers la page française équivalente Tips FAQ What's new on the site To the Forecasts and Observations / NOTAM section To "File a Flight Plan" website Publications and other links Update of the User's profile FIC Telephone Numbers My Weather Data Folder Route Weather Data Regional Weather Data Local Weather Data To the Forecasts and Observations / NOTAM section
Request Generated 09/16/2021 at 15:17:44 UTC . Weather information available at that time is displayed.


Go to a specific product

Save this request

PIREP

FIR_TORONTO (YZ)

YZ - PIREP not available

FIR_MONTREAL (UL)

UL - PIREP not available



METAR/TAF
To the Product Selector

HAMILTON/ON    

METAR CYHM 161500Z 10005KT 15SM FEW030 SCT140 SCT250 20/15 A3023 RMK CU2AC1CI1 CI TR SLP240 DENSITY ALT 1300FT=
METAR CYHM 161400Z 07007KT 15SM FEW035 SCT140 SCT250 20/14 A3023 RMK CU2AC1CI1 CI TR SLP237 DENSITY ALT 1300FT=
METAR CYHM 161300Z 05005KT 15SM FEW030 SCT120 SCT250 17/15 A3022 RMK CU2AC1CI1 CI TR SLP235 DENSITY ALT 900FT=

TAF CYHM 161138Z 1612/1712 04006KT P6SM SCT020 TEMPO 1612/1615 BKN020
FM161500 05010KT P6SM FEW003 BKN015 TEMPO 1615/1617 FEW015 BKN040
FM161700 05010KT P6SM BKN040 TEMPO 1619/1621 FEW040
FM162300 06008KT P6SM SKC
FM170300 05008KT P6SM SCT040
FM170700 05005KT 6SM BR FEW003 SCT040 PROB30 1707/1712 1/4SM FG
VV002
RMK NXT FCST BY 161800Z=

KITCHENER/WATERLOO/ON    (show WxCam)

METAR CYKF 161500Z AUTO 13006KT 070V150 9SM SCT026 SCT033 BKN040 BKN066 20/14 A3024 RMK SLP240 DENSITY ALT 1600FT=
SPECI CYKF 161436Z AUTO 14005KT 070V200 9SM SCT020 BKN033 20/15 A3024 RMK SLP239 DENSITY ALT 1500FT=
SPECI CYKF 161408Z AUTO 08003KT 050V170 9SM BKN016 18/15 A3024 RMK SLP239 DENSITY ALT 1400FT=
METAR CYKF 161400Z AUTO 06004KT 040V100 9SM SCT016 17/14 A3023 RMK SLP240 DENSITY ALT 1300FT=
SPECI CYKF 161358Z AUTO 06005KT 040V100 9SM BKN016 17/14 A3023 RMK SLP238 DENSITY ALT 1300FT=
METAR CYKF 161300Z AUTO 07005KT 9SM CLR 14/13 A3023 RMK SLP238=

TAF CYKF 161339Z 1614/1702 09007KT P6SM SCT020 TEMPO 1614/1617 BKN020
FM161700 12008KT P6SM SCT040 TEMPO 1617/1621 BKN040
BECMG 1700/1702 09005KT
RMK FCST BASED ON AUTO OBS. NXT FCST BY 162000Z=

TORONTO/LESTER B. PEARSON INTL/ON    

METAR CYYZ 161500Z 13007KT 090V170 15SM BKN030 21/15 A3024 RMK CU6 SLP240 DENSITY ALT 1000FT=
METAR CYYZ 161400Z 11004KT 030V140 15SM SCT035 20/13 A3023 RMK CU3 SLP237 DENSITY ALT 900FT=
METAR CYYZ 161300Z 05003KT 350V080 15SM BKN032 18/12 A3022 RMK CU6 SLP236 DENSITY ALT 700FT=

TAF CYYZ 161438Z 1615/1718 11005KT P6SM SCT030
FM161600 13010KT P6SM SCT030 TEMPO 1616/1620 BKN030
FM162000 13010KT P6SM FEW030
BECMG 1623/1624 08008KT
FM170700 06006KT P6SM SCT012 PROB30 1710/1714 1SM BR BKN004
FM171400 18010KT P6SM BKN015
FM171700 18012KT P6SM BKN025
RMK NXT FCST BY 161800Z=

ST. CATHARINES/NIAGARA DISTRICT/ON    

METAR CYSN 161500Z 12008KT 080V140 15SM FEW040 FEW120 22/15 A3022 RMK SC1AC1 SC TR AC TR SLP235 DENSITY ALT 900FT=
METAR CYSN 161400Z 11005KT 15SM FEW040 21/16 A3022 RMK SC1 SLP234 DENSITY ALT 800FT=
METAR CYSN 161300Z 08003KT 050V130 15SM FEW040 FEW080 19/16 A3021 RMK SC1AC1 SLP233 DENSITY ALT 600FT=

TAF CYSN 161239Z 1613/1701 09006KT P6SM FEW040
BECMG 1616/1618 02008KT
BECMG 1622/1624 06010KT
RMK NXT FCST BY 162000Z=

TORONTO/BILLY BISHOP TORONTO CITY AIRPORT/ON    (show WxCam)

METAR CYTZ 161500Z AUTO 08008KT 9SM CLR 19/15 A3024 RMK SLP241 DENSITY ALT 500FT=
METAR CYTZ 161400Z AUTO 08009KT 9SM CLR 19/14 A3023 RMK SLP237 DENSITY ALT 500FT=
METAR CYTZ 161300Z AUTO 07009KT 9SM FEW044 SCT066 18/13 A3022 RMK SLP235 DENSITY ALT 400FT=

TAF CYTZ 161339Z 1614/1714 07010KT P6SM FEW040 SCT070
FM161700 10010KT P6SM FEW040
FM170800 07008KT P6SM FEW015 TEMPO 1708/1714 BKN015
RMK FCST BASED ON AUTO OBS. NXT FCST BY 162000Z=

BORDEN/ON    

METAR CYBN 161500Z AUTO 16006KT 090V180 9SM 19/13 A3024 RMK SLP244=
METAR CYBN 161400Z AUTO 14002KT 9SM SCT034 17/13 A3024 RMK SLP242=
METAR CYBN 161300Z AUTO 22002KT 9SM CLR 12/12 A3024 RMK SLP243=

TAF CYBN 161130Z 1612/1624 VRB03KT 3/8SM FG VV001 TEMPO 1612/1613 6SM
BR FEW001
BECMG 1613/1615 P6SM NSW SKC
FM161700 15008KT P6SM SCT040 TEMPO 1617/1622 BKN040
RMK FCST BASED ON AUTO OBS. NXT FCST BY 161800Z=

TORONTO/BUTTONVILLE MUNICIPAL/ON    

LWIS CYKZ 161500Z AUTO 11006KT 20/13 A3024=
LWIS CYKZ 161400Z AUTO 09007KT 070V140 19/11 A3024=
LWIS CYKZ 161300Z AUTO 06003KT 040V160 16/13 A3024=

CYKZ - No TAF is issued for this station

TORONTO/OSHAWA EXECUTIVE AIRPORT/ON    (show WxCam)

METAR CYOO 161500Z AUTO 12009KT 070V150 9SM CLR 21/12 A3024 RMK SLP242 DENSITY ALT 900FT=
METAR CYOO 161400Z AUTO 10007KT 080V140 9SM FEW030 20/13 A3023 RMK SLP240 DENSITY ALT 800FT=
SPECI CYOO 161314Z AUTO 10006KT 060V130 9SM BKN026 18/12 A3023 RMK SLP239 DENSITY ALT 600FT=
SPECI CYOO 161304Z AUTO 10003KT 040V110 9SM BKN024 18/12 A3023 RMK SLP239 DENSITY ALT 600FT=
METAR CYOO 161300Z AUTO 07003KT 030V150 9SM SCT024 18/12 A3023 RMK SLP238 DENSITY ALT 600FT=

TAF CYOO 161339Z 1614/1702 13008KT P6SM SCT030 TEMPO 1614/1616 BKN020
FM170000 08008KT P6SM SKC
RMK FCST BASED ON AUTO OBS. NXT FCST BY 162000Z=

PETERBOROUGH/ON    (show WxCam)

METAR CYPQ 161500Z AUTO 00000KT 9SM CLR 17/16 A3025 RMK SLP249 DENSITY ALT 700FT=
SPECI CYPQ 161411Z AUTO 00000KT 9SM SCT002 14/14 A3025 RMK SLP247=
SPECI CYPQ 161401Z AUTO 00000KT 6SM BR BKN002 OVC120 14/14 A3025 RMK SLP246=
METAR CYPQ 161400Z AUTO 00000KT 5SM BR BKN002 BKN110 BKN130 13/13 A3025 RMK SLP247=
SPECI CYPQ 161358Z AUTO 00000KT 3SM BR BKN002 BKN110 OVC130 13/13 A3024 RMK SLP246=
SPECI CYPQ 161356Z AUTO 00000KT 1 3/4SM BR BKN002 OVC110 13/13 A3025 RMK SLP247=
METAR CYPQ 161300Z AUTO 00000KT 1/8SM FG VV002 11/11 A3025 RMK SLP247=

TAF CYPQ 161339Z 1614/1702 VRB03KT 1/2SM FG BKN002
BECMG 1614/1616 P6SM NSW FEW005
FM161700 14008KT P6SM SKC
BECMG 1623/1701 11004KT
RMK FCST BASED ON AUTO OBS. NXT FCST BY 162000Z=

TRENTON/ON    

METAR CYTR 161500Z 10003KT 040V150 15SM FEW035 FEW200 20/15 A3025 RMK CU1CI1 SLP243=
METAR CYTR 161400Z 05003KT 360V090 15SM FEW180 19/15 A3025 RMK AC1 SLP245=
METAR CYTR 161300Z 00000KT 15SM FEW150 16/14 A3024 RMK AC1 SLP242=

TAF CYTR 161130Z 1612/1712 VRB03KT P6SM FEW150 TEMPO 1612/1614 5SM BR
PROB30 1612/1614 2SM BR
FM161700 15007KT P6SM SCT030
FM170100 VRB03KT P6SM SKC
FM170700 VRB03KT P6SM OVC020 PROB30 1708/1712 2SM BR
RMK FCST BASED ON AUTO OBS 170200-171000Z. NXT FCST BY 161800Z=

KINGSTON/ON    

METAR CYGK 161500Z 16006KT 15SM FEW025 FEW250 20/16 A3026 RMK CU2CI1 CI TR SLP250 DENSITY ALT 600FT=
METAR CYGK 161400Z 13006KT 15SM FEW010 FEW250 20/16 A3025 RMK CF1CI1 CF TR CI TR SLP247 DENSITY ALT 600FT=
METAR CYGK 161300Z VRB02KT 15SM VCFG FEW001 FEW250 17/16 A3024 RMK SF1CI1 SF TR FG BANKS S-SW SLP244=

TAF CYGK 161339Z 1614/1702 VRB03KT P6SM FEW001
FM161600 15008KT P6SM SKC
BECMG 1621/1623 06008KT
RMK NXT FCST BY 162000Z=

OTTAWA/GATINEAU/QC    

METAR CYND 161500Z VRB02KT 15SM SCT220 18/13 A3026 RMK CI3 SLP250 DENSITY ALT 300FT=
METAR CYND 161400Z 08003KT 040V130 15SM FEW003 SCT200 16/13 A3027 RMK SF1CI4 SF TR SLP252=
METAR CYND 161300Z 08004KT 15SM FEW003 SCT200 14/12 A3026 RMK SF1CI4 SLP249=

TAF CYND 161239Z 1613/1701 VRB03KT P6SM SCT003 BKN080 BKN240 PROB30
1613/1614 1SM BR BKN003
FM161700 12007KT P6SM FEW220
RMK NXT FCST BY 161800Z=

OTTAWA/MACDONALD-CARTIER INTL/ON    

METAR CYOW 161500Z 11005KT 090V180 15SM FEW160 FEW200 SCT250 20/13 A3026 RMK AC1CI2CI2 AC TR SLP251 DENSITY ALT 700FT=
METAR CYOW 161400Z 00000KT 15SM FEW020 FEW180 SCT200 BKN250 18/14 A3026 RMK CU1AC1CI2CI2 CU TR SLP250 DENSITY ALT 500FT=
METAR CYOW 161300Z 10003KT 15SM FEW020 FEW200 SCT250 15/13 A3026 RMK CU1CI1CI3 CU TR SLP249=

TAF CYOW 161442Z 1615/1712 VRB03KT P6SM FEW020 SCT250
FM161800 11008KT P6SM FEW040 PROB30 1707/1712 1/2SM FG VV002
RMK NXT FCST BY 161800Z=

MONTREAL INTL (MIRABEL)/QC    

METAR CYMX 161500Z VRB02KT 30SM SCT240 20/13 A3028 RMK CI4 SLP255 DENSITY ALT 500FT=
METAR CYMX 161400Z 00000KT 30SM BKN240 18/13 A3028 RMK CI5 SLP256 DENSITY ALT 300FT=
METAR CYMX 161300Z VRB02KT 30SM BKN240 15/12 A3027 RMK CI6 SLP252=

TAF CYMX 161138Z 1612/1712 VRB03KT P6SM FEW035 FEW230 PROB30
1707/1712 1/2SM FG SCT002
RMK NXT FCST BY 161800Z=

MONTREAL/ST-HUBERT/QC    (show WxCam)

METAR CYHU 161500Z AUTO VRB03KT 9SM CLR 20/12 A3028 RMK SLP254 DENSITY ALT 300FT=
METAR CYHU 161400Z AUTO 00000KT 9SM CLR 18/13 A3028 RMK SLP254 DENSITY ALT 100FT=
METAR CYHU 161300Z AUTO VRB02KT 9SM CLR 16/13 A3028 RMK SLP254=

TAF CYHU 161138Z 1612/1712 VRB03KT P6SM SKC
FM162200 11007KT P6SM SKC PROB30 1708/1712 1SM BR
RMK FCST BASED ON AUTO OBS. NXT FCST BY 161800Z=

MONTREAL/PIERRE-ELLIOTT-TRUDEAU INTL/QC    

METAR CYUL 161500Z 16005KT 130V200 30SM FEW032 FEW180 BKN230 19/11 A3027 RMK CF1AC2CI5 CF TR SLP253 DENSITY ALT 300FT=
METAR CYUL 161400Z VRB02KT 30SM FEW025 SCT250 18/13 A3028 RMK CU2CI2 SLP255 DENSITY ALT 200FT=
METAR CYUL 161300Z 00000KT 30SM FEW180 BKN250 16/13 A3027 RMK AC1CI5 AC TR SLP252=

TAF CYUL 161442Z 1615/1712 VRB03KT P6SM FEW025 SCT250
FM162000 11008KT P6SM SKC
BECMG 1700/1702 06005KT
RMK NXT FCST BY 161800Z=


Your time UTC time
Weather data provided by Environment Canada and NAV CANADA